Share

Sycamore Valley, OH (43789)

7:03 PM EDT on April 24, 2014 (GMT -0400)
Raven Rock (KWVSTMAR2) Elev 627 ft | 39.45 °N, 81.12 °W | Change Station

Current weather conditions updated 3 minutes ago

Clear
Clear
62.7 °F
Feels Like 62.7 °F
N
0.0
Wind Variable Wind from NNW
Sunrise 6:34 AM
Sunset 8:12 PM
Moon Waning Crescent

Tomorrow is forecast to be Warmer than today. Thunderstorms.

Pressure 29.98 in
Visibility 10.0 miles
Clouds Clear
Dew Point 32 °F
Humidity 32%
Rainfall 0.00 in
Snow Depth Not available.
UV 1 out of 16
Pollen 9.60 out of 12
Air Quality Not available.
Flu Activity Local Activity
METAR KPKB 242253Z AUTO 04006KT 10SM CLR 18/M07 A2998 RMK AO2 SLP151 T01781067

More Conditions Fewer Conditions

Pressure 29.98 in
Visibility 10.0 miles
Clouds Clear
Dew Point 32 °F
Humidity 32%
Rainfall 0.00 in
Snow Depth Not available.
UV 1 out of 16
Pollen 9.60 out of 12
Air Quality Not available.
Flu Activity Local Activity
METAR KPKB 242253Z AUTO 04006KT 10SM CLR 18/M07 A2998 RMK AO2 SLP151 T01781067

More Conditions Fewer Conditions

10-Day Weather Forecast

Almanac

Astronomy

Apr. 24, 2014 Rise Set
Actual Time 6:34 AM EDT 8:12 PM EDT
Civil Twilight 6:06 AM EDT 8:40 PM EDT
Nautical Twilight 5:31 AM EDT 9:15 PM EDT
Astronomical Twilight 4:55 AM EDT 9:52 PM EDT
Moon 3:44 AM EDT 3:26 PM EDT
Length of Visible Light 14h 34m
Length of Day
13h 37m
Tomorrow will be 2m 21s longer.
Waning Crescent, 22% of the Moon is Illuminated
Today
Waning Crescent
Apr 29
New
May 6
First Quarter
May 14
Full
May 21
Last Quarter

Today's Extremes

State Highs State Lows

Community

  • Jone Runs Falls
    Jone Runs Falls
  • Easter in Shenandoah National Park
    Easter in Shenandoah National Park
  • Sunset at Apalachicola Bay, Florida
    Sunset at Apalachicola Bay, Florida
  • Clouds mov'n in
    Clouds mov'n in
  • Stacked
    Stacked

WunderPhotos

Upload Photos

1,704,735 photos uploaded!

Nearby

Snow Depth

Station Depth Elevation
No new snow has been reported.

Coastal Water Temperatures

Place Temperature
No Stations Reporting

Earthquake Activity

City Distance Mag. Time & Date
No recent earthquake activity has been reported nearby.
Minimum magnitude displayed is 2.5.

Nearby Weather Stations

Station Location Temp. Dew Point Humidity Wind Precip. Elev Updated Type
Raven Rock, St. Marys, WV 62.7 °F 32 °F 32% NNW  at  0.0 mph 0.00 in / hr 627 ft 7:00 PM EDT Rapid Fire
Kidwell, WV, Sistersville, WV 63.5 °F 24 °F 22% WNW  at  1.7 mph - / hr 738 ft 7:03 PM EDT Normal
BEVERLY, OH 64.6 °F 16 °F 15% ENE  at  0.6 mph 0.00 in / hr 702 ft 7:03 PM EDT Rapid Fire
Waterford, OH 62.4 °F 28 °F 27% South  at  1.0 mph 0.00 in / hr 774 ft 5:56 PM CDT Normal

Show More Stations Show Fewer Stations

What do you think?

We're not finished. Please let us know what you like, what you don't like, and what you are still missing.